KJST/JST METAR and TAF weather

Enter ICAO airport designator
Station Type Date Time Source
KJST METAR 2020/10/29 17:07 UTC NOAA

KJST 291707Z AUTO 07008G16KT 1 1/2SM RA BR FEW003 BKN023 OVC037 07/06 A2959 RMK AO2 P0003 T00720056


Station Type Date Time Source
KJST Decoded METAR 2020/10/29 17:07 UTC NOAA

JOHNSTOWN-CAMBRIA CO AIRPORT , PA, United States (KJST) 40-19N 078-50W 694M
Oct 29, 2020 - 01:07 PM EDT / 2020.10.29 1707 UTC
Wind: from the ENE (070 degrees) at 9 MPH (8 KT) gusting to 18 MPH (16 KT):0
Visibility: 1 1/2 mile(s):0
Sky conditions: overcast
Weather: rain; mist
Precipitation last hour: 0.03 inches
Temperature: 45.0 F (7.2 C)
Dew Point: 42.1 F (5.6 C)
Relative Humidity: 89%
Pressure (altimeter): 29.59 in. Hg (1002 hPa)
ob: KJST 291707Z AUTO 07008G16KT 1 1/2SM RA BR FEW003 BKN023 OVC037 07/06 A2959 RMK AO2 P0003 T00720056
cycle: 17

Station Type Date Time Source
KJST TAF 2020/10/29 16:09 UTC NOAA

TAF
AMD KJST 291606Z 2916/3012 07010KT 2SM RA BR OVC005
FM292200 03010KT 2SM -RA BR OVC004
FM300600 34008KT 2SM -RADZ BR OVC004

Example: see airport list